Time;durP1;ratioP1;P1;durP2;ratioP2;P2;SDS_P1;SDS_P2;PMS_P1;PMS_P2;Temp;Humidity;BMP_temperature;BMP_pressure;BME280_temperature;BME280_humidity;BME280_pressure;Samples;Min_cycle;Max_cycle;Signal;HPM_P1;HPM_P2
2023/08/24 00:01:12;;;;;;;13.02;9.23;;;;;;;25.50;61.56;99263.34;4381878;32;34317;-87
2023/08/24 00:03:40;;;;;;;13.77;10.23;;;;;;;25.55;61.48;99267.47;4369744;32;34680;-87
2023/08/24 00:06:08;;;;;;;12.10;10.05;;;;;;;25.49;61.48;99262.44;4357019;32;32714;-86
2023/08/24 00:08:35;;;;;;;11.70;9.55;;;;;;;25.41;61.74;99265.47;4365366;32;33576;-87
2023/08/24 00:11:04;;;;;;;14.40;9.65;;;;;;;25.46;61.67;99259.97;4367489;32;33077;-86
2023/08/24 00:13:32;;;;;;;10.98;9.35;;;;;;;25.48;61.25;99269.56;4366353;32;34505;-85
2023/08/24 00:15:59;;;;;;;11.93;9.65;;;;;;;25.37;61.50;99255.91;4367129;32;33881;-86
2023/08/24 00:18:27;;;;;;;10.80;8.60;;;;;;;25.37;61.47;99260.38;4369034;32;34549;-86
2023/08/24 00:20:54;;;;;;;13.80;9.57;;;;;;;25.41;61.20;99264.59;4367494;32;33792;-88
2023/08/24 00:23:22;;;;;;;11.43;9.70;;;;;;;25.39;61.20;99267.34;4367441;32;35382;-86
2023/08/24 00:25:50;;;;;;;13.18;9.68;;;;;;;25.37;61.38;99271.00;4362366;32;33778;-85
2023/08/24 00:28:17;;;;;;;10.63;9.32;;;;;;;25.30;61.57;99265.09;4362938;32;33851;-84
2023/08/24 00:30:45;;;;;;;15.23;9.88;;;;;;;25.26;61.78;99263.50;4362731;32;33497;-84
2023/08/24 00:33:32;;;;;;;15.00;9.70;;;;;;;25.21;61.83;99260.22;4381003;32;34287;-86
2023/08/24 00:36:00;;;;;;;12.55;9.18;;;;;;;25.21;61.68;99257.56;4373001;32;33466;-86
2023/08/24 00:38:28;;;;;;;12.68;8.73;;;;;;;25.29;61.55;99254.56;4353864;32;34825;-86
2023/08/24 00:40:58;;;;;;;12.45;9.43;;;;;;;25.15;61.78;99252.53;4370426;32;33370;-87
2023/08/24 00:43:26;;;;;;;14.05;9.05;;;;;;;25.10;61.87;99257.19;4353985;32;33017;-87
2023/08/24 00:46:00;;;;;;;12.00;8.75;;;;;;;25.03;62.30;99266.31;4368918;32;33954;-87
2023/08/24 00:48:29;;;;;;;10.27;8.32;;;;;;;25.12;61.85;99264.16;4362956;32;34451;-85
2023/08/24 00:51:01;;;;;;;14.55;9.60;;;;;;;25.23;61.62;99255.72;4368697;32;32673;-87
2023/08/24 00:53:30;;;;;;;12.50;9.93;;;;;;;25.11;61.91;99267.72;4370267;32;34260;-86
2023/08/24 00:55:58;;;;;;;13.20;9.52;;;;;;;25.21;61.47;99273.50;4364489;32;34233;-85
2023/08/24 00:58:27;;;;;;;11.18;9.95;;;;;;;25.14;61.72;99280.84;4367530;32;33532;-85
2023/08/24 01:00:56;;;;;;;14.05;9.85;;;;;;;24.98;62.51;99279.78;4380455;32;34637;-86
2023/08/24 01:03:24;;;;;;;12.37;9.88;;;;;;;25.12;62.20;99285.37;4369873;32;34972;-86
2023/08/24 01:05:52;;;;;;;10.93;9.25;;;;;;;25.19;61.96;99278.00;4375103;32;34194;-85
2023/08/24 01:08:21;;;;;;;12.10;9.25;;;;;;;25.16;62.04;99276.34;4366768;32;33795;-87
2023/08/24 01:11:12;;;;;;;13.45;9.27;;;;;;;25.30;61.58;99275.72;4377099;32;33464;-86
2023/08/24 01:13:44;;;;;;;12.48;9.13;;;;;;;25.31;61.83;99272.16;4383913;32;34311;-86
2023/08/24 01:16:17;;;;;;;10.85;9.20;;;;;;;25.12;62.25;99268.59;4369151;32;34073;-85
2023/08/24 01:18:45;;;;;;;12.13;9.68;;;;;;;25.03;62.84;99267.19;4367281;32;34374;-86
2023/08/24 01:21:14;;;;;;;11.00;9.43;;;;;;;25.09;62.60;99264.25;4369246;32;34380;-85
2023/08/24 01:23:56;;;;;;;14.23;10.00;;;;;;;25.02;62.48;99268.13;4356751;32;34447;-87
2023/08/24 01:26:24;;;;;;;10.43;9.27;;;;;;;25.10;62.40;99268.66;4368912;32;33799;-85
2023/08/24 01:28:52;;;;;;;13.07;9.77;;;;;;;25.16;61.86;99256.94;4369337;32;34124;-84
2023/08/24 01:31:19;;;;;;;12.35;9.30;;;;;;;25.10;61.86;99268.66;4367953;32;33322;-85
2023/08/24 01:33:48;;;;;;;11.60;9.90;;;;;;;25.18;61.66;99269.16;4369272;32;34080;-85
2023/08/24 01:36:19;;;;;;;10.93;8.95;;;;;;;24.95;62.46;99271.97;4366709;32;33870;-85
2023/08/24 01:39:06;;;;;;;10.48;9.38;;;;;;;24.92;62.46;99274.75;4367006;32;34618;-84
2023/08/24 01:41:42;;;;;;;9.90;8.63;;;;;;;24.94;62.44;99267.59;4368140;32;33788;-86
2023/08/24 01:44:13;;;;;;;13.40;9.13;;;;;;;24.98;62.07;99263.88;4369636;32;35042;-86
2023/08/24 01:46:42;;;;;;;11.50;9.55;;;;;;;24.99;62.04;99271.75;4366592;32;33996;-86
2023/08/24 01:49:12;;;;;;;12.90;9.30;;;;;;;24.86;62.53;99264.44;4368641;32;33267;-85
2023/08/24 01:51:40;;;;;;;13.95;10.45;;;;;;;24.84;62.76;99263.63;4356168;32;33626;-85
2023/08/24 01:54:09;;;;;;;12.18;9.27;;;;;;;24.74;63.14;99257.88;4365766;32;33847;-85
2023/08/24 01:56:36;;;;;;;12.85;9.50;;;;;;;24.73;63.40;99259.63;4368391;32;34694;-85
2023/08/24 01:59:04;;;;;;;11.95;9.23;;;;;;;24.86;63.00;99259.13;4365840;32;33569;-86
2023/08/24 02:01:32;;;;;;;11.55;10.13;;;;;;;24.81;63.28;99264.59;4357123;32;33177;-84
2023/08/24 02:03:59;;;;;;;11.88;9.88;;;;;;;24.62;64.12;99267.19;4367789;32;34399;-86
2023/08/24 02:06:27;;;;;;;11.10;9.77;;;;;;;24.66;64.12;99260.88;4382811;32;34035;-86
2023/08/24 02:08:55;;;;;;;12.68;10.50;;;;;;;24.79;63.93;99265.62;4369666;32;34544;-86
2023/08/24 02:11:22;;;;;;;11.85;9.80;;;;;;;24.85;63.58;99262.69;4363292;32;32809;-85
2023/08/24 02:13:50;;;;;;;10.88;9.35;;;;;;;24.83;63.42;99253.94;4373988;32;34502;-83
2023/08/24 02:16:17;;;;;;;13.10;10.48;;;;;;;24.90;63.22;99252.75;4365948;32;33416;-84
2023/08/24 02:18:45;;;;;;;11.60;9.32;;;;;;;24.95;62.94;99250.75;4372319;32;33268;-84
2023/08/24 02:21:14;;;;;;;14.23;9.23;;;;;;;25.01;62.75;99258.44;4383682;32;34380;-84
2023/08/24 02:23:42;;;;;;;12.40;9.82;;;;;;;24.88;63.13;99255.47;4381775;32;33784;-85
2023/08/24 02:26:09;;;;;;;11.60;9.75;;;;;;;24.92;63.22;99253.53;4368255;32;33753;-84
2023/08/24 02:28:37;;;;;;;10.95;9.15;;;;;;;25.02;62.85;99254.00;4367005;32;33233;-85
2023/08/24 02:31:05;;;;;;;14.07;9.32;;;;;;;25.00;62.97;99254.03;4374728;32;34064;-85
2023/08/24 02:33:34;;;;;;;12.88;9.45;;;;;;;24.94;63.21;99254.34;4382141;32;33941;-86
2023/08/24 02:36:03;;;;;;;12.35;9.52;;;;;;;24.87;63.69;99252.88;4381034;32;34122;-84
2023/08/24 02:38:30;;;;;;;12.07;9.32;;;;;;;24.89;63.65;99254.56;4365311;32;33717;-85
2023/08/24 02:41:07;;;;;;;11.52;9.90;;;;;;;24.84;63.64;99256.53;4368041;32;33525;-85
2023/08/24 02:43:34;;;;;;;13.13;9.90;;;;;;;24.93;63.19;99249.97;4366333;32;34039;-92
2023/08/24 02:46:05;;;;;;;11.25;8.77;;;;;;;24.88;63.16;99251.94;4366476;32;34310;-85
2023/08/24 02:48:36;;;;;;;11.73;9.57;;;;;;;24.97;62.88;99249.75;4363259;32;34303;-85
2023/08/24 02:51:04;;;;;;;11.60;9.50;;;;;;;24.98;62.79;99248.81;4356452;32;34198;-83
2023/08/24 02:53:32;;;;;;;12.37;9.38;;;;;;;24.98;62.91;99255.91;4374159;32;33078;-85
2023/08/24 02:56:01;;;;;;;11.82;8.68;;;;;;;25.00;62.73;99256.69;4378636;32;34716;-95
2023/08/24 02:58:29;;;;;;;11.52;10.00;;;;;;;24.96;62.82;99260.41;4382013;32;32590;-85
2023/08/24 03:00:57;;;;;;;12.02;9.40;;;;;;;24.95;62.81;99258.69;4358184;32;33721;-85
2023/08/24 03:03:25;;;;;;;14.80;10.00;;;;;;;25.03;62.54;99251.25;4384747;32;34282;-84
2023/08/24 03:05:53;;;;;;;11.68;8.48;;;;;;;24.84;63.13;99259.19;4369255;32;34942;-85
2023/08/24 03:08:20;;;;;;;10.68;8.60;;;;;;;24.90;62.91;99247.44;4365683;32;33953;-84
2023/08/24 03:10:48;;;;;;;9.75;8.48;;;;;;;24.93;62.74;99245.53;4371515;32;33533;-84
2023/08/24 03:13:16;;;;;;;10.73;8.95;;;;;;;24.91;62.62;99246.50;4381438;32;34268;-85
2023/08/24 03:15:43;;;;;;;11.00;8.38;;;;;;;24.91;62.46;99251.81;4380965;32;34060;-85
2023/08/24 03:18:12;;;;;;;11.25;8.23;;;;;;;24.81;62.67;99250.50;4382339;32;32838;-84
2023/08/24 03:20:41;;;;;;;11.50;8.35;;;;;;;24.85;62.54;99246.78;4378856;32;34571;-85
2023/08/24 03:23:09;;;;;;;11.40;8.82;;;;;;;24.83;62.50;99248.66;4378194;32;33854;-85
2023/08/24 03:25:37;;;;;;;10.55;8.32;;;;;;;24.80;62.66;99254.09;4381803;32;34197;-85
2023/08/24 03:28:07;;;;;;;10.85;8.38;;;;;;;24.78;62.69;99253.31;4379438;32;34310;-85
2023/08/24 03:30:36;;;;;;;10.45;9.35;;;;;;;24.67;63.10;99259.94;4381707;32;33959;-85
2023/08/24 03:33:04;;;;;;;11.75;8.50;;;;;;;24.66;63.19;99255.56;4381432;32;33919;-84
2023/08/24 03:35:33;;;;;;;10.32;8.30;;;;;;;24.74;62.65;99256.09;4371989;32;34824;-84
2023/08/24 03:38:00;;;;;;;12.13;9.15;;;;;;;24.83;62.30;99259.25;4366091;32;34306;-85
2023/08/24 03:40:28;;;;;;;9.77;8.18;;;;;;;24.70;62.56;99258.91;4367423;32;34094;-85
2023/08/24 03:42:56;;;;;;;11.93;8.68;;;;;;;24.62;62.73;99258.38;4368746;32;33830;-85
2023/08/24 03:45:24;;;;;;;11.20;8.85;;;;;;;24.69;62.68;99257.19;4364838;32;34580;-84
2023/08/24 03:47:51;;;;;;;9.70;8.70;;;;;;;24.66;62.82;99259.97;4375054;32;32247;-86
2023/08/24 03:50:22;;;;;;;10.30;9.13;;;;;;;24.54;63.14;99268.47;4384062;32;34257;-87
2023/08/24 03:52:50;;;;;;;12.10;8.43;;;;;;;24.58;62.96;99259.44;4384149;32;34049;-86
2023/08/24 03:55:18;;;;;;;12.60;8.95;;;;;;;24.56;62.91;99256.03;4358090;32;33201;-87
2023/08/24 03:57:46;;;;;;;14.07;9.23;;;;;;;24.54;62.83;99268.47;4366000;32;34223;-87
2023/08/24 04:00:14;;;;;;;11.32;8.88;;;;;;;24.47;63.06;99263.44;4367980;32;33850;-86
2023/08/24 04:02:42;;;;;;;10.38;8.77;;;;;;;24.50;63.19;99267.72;4380544;32;34613;-87
2023/08/24 04:05:10;;;;;;;11.75;8.38;;;;;;;24.54;62.94;99268.47;4360811;32;33172;-86
2023/08/24 04:07:39;;;;;;;10.68;9.35;;;;;;;24.63;62.60;99266.28;4365414;32;34485;-87
2023/08/24 04:10:07;;;;;;;11.80;9.43;;;;;;;24.51;62.97;99264.19;4367560;32;33608;-87
2023/08/24 04:12:35;;;;;;;10.98;8.57;;;;;;;24.42;63.33;99265.41;4382030;32;33715;-86
2023/08/24 04:15:04;;;;;;;11.45;8.40;;;;;;;24.48;63.32;99269.59;4382856;32;33424;-86
2023/08/24 04:17:32;;;;;;;12.55;9.35;;;;;;;24.37;63.65;99267.38;4386920;32;33752;-85
2023/08/24 04:20:01;;;;;;;16.42;9.50;;;;;;;24.64;63.10;99265.34;4380373;32;33664;-83
2023/08/24 04:22:29;;;;;;;10.95;9.18;;;;;;;24.51;63.49;99261.53;4365666;32;33444;-85
2023/08/24 04:24:56;;;;;;;10.60;9.35;;;;;;;24.47;63.70;99262.56;4367380;32;33978;-88
2023/08/24 04:27:24;;;;;;;11.68;9.05;;;;;;;24.50;63.74;99267.72;4381675;32;34332;-84
2023/08/24 04:29:52;;;;;;;14.05;9.23;;;;;;;24.47;63.91;99267.84;4381603;32;33633;-92
2023/08/24 04:32:19;;;;;;;11.90;8.93;;;;;;;24.49;63.87;99268.66;4374947;32;33609;-84
2023/08/24 04:34:47;;;;;;;9.43;7.87;;;;;;;24.58;63.81;99265.59;4367893;32;35023;-86
2023/08/24 04:37:14;;;;;;;9.63;8.00;;;;;;;24.75;62.88;99263.09;4369822;32;33167;-83
2023/08/24 04:39:42;;;;;;;12.13;8.77;;;;;;;24.87;62.67;99268.78;4363705;32;32526;-85
2023/08/24 04:42:09;;;;;;;11.70;7.65;;;;;;;25.13;62.45;99271.19;4365713;32;35099;-82
2023/08/24 04:44:37;;;;;;;11.20;8.75;;;;;;;25.40;61.70;99270.84;4360311;32;32737;-86
2023/08/24 04:47:05;;;;;;;10.35;8.40;;;;;;;25.71;60.94;99271.13;4375483;32;34422;-85
2023/08/24 04:49:32;;;;;;;10.90;7.93;;;;;;;25.98;59.97;99264.59;4371386;32;34042;-86
2023/08/24 04:52:00;;;;;;;12.13;8.27;;;;;;;26.30;59.22;99263.00;4366898;32;34477;-86
2023/08/24 04:54:27;;;;;;;9.13;7.50;;;;;;;26.58;58.57;99270.47;4367822;32;34476;-86
2023/08/24 04:56:55;;;;;;;10.18;7.40;;;;;;;26.80;57.19;99268.44;4366927;32;34401;-87
2023/08/24 04:59:22;;;;;;;10.27;7.72;;;;;;;26.99;57.17;99276.31;4378015;32;33848;-85
2023/08/24 05:01:50;;;;;;;9.85;7.28;;;;;;;27.08;57.30;99277.59;4370572;32;34035;-86
2023/08/24 05:04:18;;;;;;;10.02;7.47;;;;;;;27.52;55.91;99277.91;4366376;32;33946;-87
2023/08/24 05:06:45;;;;;;;8.27;6.97;;;;;;;27.58;55.39;99276.72;4358354;32;33139;-87
2023/08/24 05:09:13;;;;;;;9.55;7.60;;;;;;;27.85;54.76;99287.69;4370098;32;34048;-91
2023/08/24 05:11:40;;;;;;;10.68;7.97;;;;;;;28.15;53.74;99287.72;4376853;32;34168;-86
2023/08/24 05:14:08;;;;;;;13.65;7.90;;;;;;;28.32;53.54;99289.41;4438340;27;34564;-85
2023/08/24 05:16:35;;;;;;;10.60;8.07;;;;;;;28.41;53.56;99286.22;4383823;32;32937;-86
2023/08/24 05:19:03;;;;;;;10.85;8.05;;;;;;;28.50;53.39;99288.38;4383550;32;33756;-86
2023/08/24 05:21:30;;;;;;;10.98;7.70;;;;;;;28.55;52.91;99285.44;4372039;32;35001;-86
2023/08/24 05:23:58;;;;;;;9.57;7.40;;;;;;;28.68;53.36;99291.75;4383696;32;34140;-86
2023/08/24 05:26:26;;;;;;;10.23;7.47;;;;;;;28.69;52.68;99289.94;4366563;32;33677;-86
2023/08/24 05:28:53;;;;;;;10.38;7.65;;;;;;;28.74;52.58;99295.84;4365136;32;34014;-86
2023/08/24 05:31:21;;;;;;;11.70;8.27;;;;;;;28.80;52.37;99287.50;4367281;32;34935;-85
2023/08/24 05:33:49;;;;;;;10.20;8.00;;;;;;;28.66;52.10;99292.78;4369997;32;34393;-92
2023/08/24 05:36:16;;;;;;;10.13;7.82;;;;;;;29.02;51.63;99295.09;4367760;32;34337;-86
2023/08/24 05:38:46;;;;;;;14.05;8.38;;;;;;;29.09;51.49;99299.97;4364327;32;34867;-86
2023/08/24 05:41:33;;;;;;;11.25;8.55;;;;;;;28.89;50.97;99300.28;4365235;32;33852;-86
2023/08/24 05:44:00;;;;;;;12.52;8.38;;;;;;;28.94;51.01;99298.16;4363365;32;33845;-86
2023/08/24 05:46:28;;;;;;;14.48;8.35;;;;;;;28.55;52.11;99302.28;4364922;32;34156;-86
2023/08/24 05:48:58;;;;;;;13.80;8.80;;;;;;;28.20;53.07;99300.78;4356311;32;33868;-85
2023/08/24 05:51:25;;;;;;;11.02;8.13;;;;;;;28.56;52.50;99296.03;4355151;32;35143;-85
2023/08/24 05:53:55;;;;;;;11.95;8.40;;;;;;;28.33;53.44;99297.31;4353997;32;33609;-86
2023/08/24 05:56:23;;;;;;;11.48;9.18;;;;;;;28.34;52.92;99303.53;4349839;33;33754;-87
2023/08/24 05:58:50;;;;;;;12.30;8.43;;;;;;;28.02;54.16;99303.56;4352734;32;34753;-87
2023/08/24 06:01:18;;;;;;;12.45;8.70;;;;;;;28.35;52.63;99299.91;4351490;33;33812;-84
2023/08/24 06:03:46;;;;;;;11.43;8.13;;;;;;;28.56;52.15;99301.34;4351608;33;34848;-86
2023/08/24 06:06:14;;;;;;;8.98;7.32;;;;;;;28.44;53.25;99307.37;4349409;33;34384;-85
2023/08/24 06:08:41;;;;;;;10.65;7.87;;;;;;;28.41;54.03;99304.91;4360707;32;33582;-87
2023/08/24 06:11:09;;;;;;;10.60;8.45;;;;;;;28.47;53.87;99304.53;4364450;32;34205;-86
2023/08/24 06:13:37;;;;;;;10.20;7.97;;;;;;;28.17;53.31;99312.47;4365220;32;33981;-86
2023/08/24 06:16:04;;;;;;;9.60;8.02;;;;;;;28.26;53.14;99316.41;4361196;32;33400;-84
2023/08/24 06:18:32;;;;;;;11.57;8.02;;;;;;;28.48;54.48;99300.91;4357884;32;33910;-84
2023/08/24 06:20:59;;;;;;;11.12;8.60;;;;;;;28.31;55.27;99314.37;4352611;32;34124;-84
2023/08/24 06:23:27;;;;;;;13.35;8.10;;;;;;;28.39;55.19;99301.47;4348084;32;33704;-86
2023/08/24 06:25:55;;;;;;;13.25;8.18;;;;;;;28.19;53.75;99317.75;4343791;32;33495;-84
2023/08/24 06:28:22;;;;;;;9.70;8.00;;;;;;;27.98;55.44;99319.81;4362096;32;34857;-83
2023/08/24 06:30:50;;;;;;;11.15;8.00;;;;;;;28.26;55.05;99317.31;4368594;32;35062;-85
2023/08/24 06:33:18;;;;;;;9.32;8.15;;;;;;;28.25;54.38;99320.03;4347225;32;33661;-84
2023/08/24 06:35:46;;;;;;;10.50;8.10;;;;;;;28.05;54.26;99318.50;4350507;32;33285;-86
2023/08/24 06:38:13;;;;;;;12.85;8.25;;;;;;;27.95;55.61;99322.63;4350881;32;34748;-84
2023/08/24 06:40:41;;;;;;;11.65;8.70;;;;;;;28.01;55.16;99323.16;4367765;32;34648;-84
2023/08/24 06:43:09;;;;;;;12.43;8.32;;;;;;;27.87;54.95;99315.06;4351438;32;34744;-85
2023/08/24 06:45:36;;;;;;;12.00;8.38;;;;;;;27.89;55.93;99316.72;4351830;32;33378;-84
2023/08/24 06:48:06;;;;;;;11.70;8.38;;;;;;;27.84;55.75;99308.13;4357969;32;34065;-84
2023/08/24 06:50:36;;;;;;;12.30;8.13;;;;;;;27.96;56.27;99319.00;4364596;32;34885;-84
2023/08/24 06:53:04;;;;;;;13.15;8.00;;;;;;;27.99;55.32;99317.03;4351903;32;34789;-84
2023/08/24 06:55:32;;;;;;;11.38;7.62;;;;;;;28.32;54.67;99313.41;4350012;32;33860;-85
2023/08/24 06:57:59;;;;;;;14.55;7.25;;;;;;;28.38;54.13;99314.91;4360494;32;33568;-85
2023/08/24 07:00:27;;;;;;;10.63;8.13;;;;;;;28.50;53.96;99308.84;4351402;32;33827;-85
2023/08/24 07:02:55;;;;;;;10.93;7.43;;;;;;;28.88;53.15;99297.72;4355372;32;33626;-90
2023/08/24 07:05:23;;;;;;;11.82;7.15;;;;;;;28.72;54.00;99308.44;4350471;32;34171;-85
2023/08/24 07:07:50;;;;;;;15.13;8.05;;;;;;;29.02;53.21;99300.44;4347277;32;34711;-83
2023/08/24 07:10:18;;;;;;;10.48;7.15;;;;;;;28.95;52.67;99310.59;4345949;32;33289;-86
2023/08/24 07:12:46;;;;;;;11.60;7.12;;;;;;;29.27;51.48;99307.78;4356286;32;34791;-84
2023/08/24 07:15:14;;;;;;;11.57;7.55;;;;;;;29.48;50.97;99303.78;4354343;32;33476;-85
2023/08/24 07:17:41;;;;;;;11.88;7.25;;;;;;;29.47;51.58;99307.41;4362135;32;34282;-85
2023/08/24 07:20:09;;;;;;;13.27;7.20;;;;;;;29.62;50.21;99310.94;4359528;32;34842;-89
2023/08/24 07:22:37;;;;;;;11.90;8.15;;;;;;;29.24;50.54;99306.16;4359819;32;35038;-83
2023/08/24 07:25:05;;;;;;;12.15;7.75;;;;;;;29.65;49.91;99309.88;4368999;32;33586;-83
2023/08/24 07:27:33;;;;;;;10.00;7.10;;;;;;;29.72;50.19;99316.56;4367186;32;34087;-96
2023/08/24 07:30:05;;;;;;;8.80;7.37;;;;;;;29.93;48.74;99309.84;4360806;32;35002;-90
2023/08/24 07:32:49;;;;;;;9.95;6.65;;;;;;;29.94;49.87;99314.22;4362501;32;34319;-96
2023/08/24 07:35:16;;;;;;;8.98;6.90;;;;;;;29.29;47.97;99305.88;4353938;32;33659;-96
2023/08/24 07:37:43;;;;;;;11.73;7.05;;;;;;;29.70;48.27;99311.34;4348222;33;33764;-91
2023/08/24 07:40:11;;;;;;;8.35;6.32;;;;;;;29.51;48.21;99322.28;4349823;32;34591;-95
2023/08/24 07:42:47;;;;;;;11.00;7.20;;;;;;;29.55;46.48;99306.94;4351849;33;34313;-88
2023/08/24 07:45:15;;;;;;;10.77;7.28;;;;;;;29.80;47.11;99311.59;4351661;33;33457;-96
2023/08/24 07:47:43;;;;;;;9.00;6.78;;;;;;;29.85;47.09;99311.28;4350651;33;33774;-94
2023/08/24 07:50:11;;;;;;;9.35;6.85;;;;;;;29.69;46.25;99298.91;4347995;33;34118;-94
2023/08/24 07:52:39;;;;;;;9.35;6.50;;;;;;;29.26;47.08;99314.09;4349010;33;34265;-95
2023/08/24 07:55:08;;;;;;;10.95;7.62;;;;;;;29.42;46.41;99312.16;4351162;33;34578;-84
2023/08/24 07:57:36;;;;;;;10.32;7.35;;;;;;;29.48;47.33;99314.47;4335093;33;34220;-83
2023/08/24 08:00:05;;;;;;;14.27;7.37;;;;;;;29.91;47.77;99317.09;4347943;33;34179;-83
2023/08/24 08:02:38;;;;;;;10.18;6.40;;;;;;;30.15;47.56;99311.97;4347703;33;34594;-85
2023/08/24 08:05:07;;;;;;;10.07;7.00;;;;;;;29.84;44.56;99307.75;4347410;33;34101;-83
2023/08/24 08:07:35;;;;;;;8.23;6.50;;;;;;;29.93;45.47;99315.19;4354571;32;33620;-83
2023/08/24 08:10:04;;;;;;;11.90;7.45;;;;;;;29.93;45.58;99309.84;4358398;32;33937;-94
2023/08/24 08:12:32;;;;;;;10.52;6.68;;;;;;;30.19;45.15;99318.88;4347518;32;34033;-86
2023/08/24 08:15:00;;;;;;;8.80;6.50;;;;;;;29.76;45.12;99313.59;4345575;33;34021;-91
2023/08/24 08:17:30;;;;;;;9.95;6.43;;;;;;;29.45;45.54;99311.97;4347474;33;33890;-85
2023/08/24 08:19:59;;;;;;;8.93;6.97;;;;;;;29.93;44.61;99308.97;4349559;32;34261;-86
2023/08/24 08:22:27;;;;;;;9.77;7.28;;;;;;;29.76;46.55;99328.78;4354570;32;33384;-90
2023/08/24 08:24:56;;;;;;;11.95;7.93;;;;;;;29.93;47.22;99325.88;4359541;32;32864;-86
2023/08/24 08:27:24;;;;;;;11.55;7.72;;;;;;;29.33;47.51;99331.44;4360878;32;33935;-84
2023/08/24 08:29:51;;;;;;;11.30;8.48;;;;;;;29.16;48.73;99324.44;4361939;32;34142;-83
2023/08/24 08:32:19;;;;;;;11.23;8.30;;;;;;;29.90;47.40;99325.22;4347276;32;33762;-84
2023/08/24 08:34:46;;;;;;;10.20;7.20;;;;;;;29.69;48.76;99325.63;4346198;33;34340;-87
2023/08/24 08:37:15;;;;;;;10.70;7.37;;;;;;;29.90;47.40;99328.75;4345432;33;34101;-82
2023/08/24 08:39:42;;;;;;;9.90;7.47;;;;;;;30.11;46.28;99328.31;4344926;33;33889;-85
2023/08/24 08:42:14;;;;;;;13.00;7.18;;;;;;;30.01;48.03;99328.06;4346614;33;34296;-84
2023/08/24 08:44:44;;;;;;;9.88;6.43;;;;;;;29.56;45.89;99328.19;4365229;32;33574;-85
2023/08/24 08:47:13;;;;;;;11.15;6.32;;;;;;;29.77;45.11;99317.13;4353821;32;34446;-93
2023/08/24 08:49:45;;;;;;;9.75;6.22;;;;;;;29.51;45.34;99324.06;4361987;32;33750;-96
2023/08/24 08:52:13;;;;;;;7.57;5.20;;;;;;;30.06;43.46;99310.75;4362582;32;34404;-85
2023/08/24 08:54:40;;;;;;;9.23;6.15;;;;;;;29.68;43.68;99304.34;4362150;32;33558;-88
2023/08/24 08:57:08;;;;;;;11.75;5.55;;;;;;;30.32;42.49;99308.22;4362965;32;33934;-88
2023/08/24 08:59:36;;;;;;;8.50;5.75;;;;;;;30.10;41.19;99313.22;4366428;32;33580;-83
2023/08/24 09:02:05;;;;;;;7.93;5.03;;;;;;;30.47;41.38;99309.88;4361947;32;33912;-83
2023/08/24 09:04:33;;;;;;;8.27;5.40;;;;;;;30.40;41.18;99305.03;4350210;32;34527;-84
2023/08/24 09:07:07;;;;;;;9.07;5.10;;;;;;;30.35;43.38;99304.50;4346328;33;33710;-84
2023/08/24 09:09:36;;;;;;;9.18;6.22;;;;;;;30.82;41.85;99303.97;4353036;32;34799;-82
2023/08/24 09:12:05;;;;;;;7.93;5.53;;;;;;;30.92;42.33;99302.38;4347764;32;34438;-95
2023/08/24 09:14:36;;;;;;;9.23;6.00;;;;;;;30.11;42.43;99306.91;4360810;32;34456;-84
2023/08/24 09:17:04;;;;;;;10.32;5.50;;;;;;;30.38;43.71;99296.25;4361733;32;34501;-86
2023/08/24 09:19:35;;;;;;;10.65;5.75;;;;;;;30.35;42.39;99300.00;4370452;32;34880;-83
2023/08/24 09:22:03;;;;;;;8.60;5.93;;;;;;;30.51;42.04;99295.31;4370569;32;35045;-92
2023/08/24 09:24:35;;;;;;;7.57;5.45;;;;;;;30.75;42.14;99300.84;4377521;32;33805;-85
2023/08/24 09:27:20;;;;;;;11.90;5.87;;;;;;;30.90;41.37;99290.91;4376171;32;33877;-90
2023/08/24 09:29:51;;;;;;;9.27;5.50;;;;;;;30.77;42.17;99295.41;4376602;32;33429;-82
2023/08/24 09:32:23;;;;;;;10.00;5.40;;;;;;;30.68;40.03;99290.63;4375869;32;34480;-84
2023/08/24 09:34:51;;;;;;;8.02;5.30;;;;;;;30.57;41.77;99293.19;4375877;32;33691;-84
2023/08/24 09:37:19;;;;;;;9.65;5.53;;;;;;;30.72;41.79;99292.13;4355041;32;34310;-83
2023/08/24 09:39:47;;;;;;;6.78;4.95;;;;;;;31.00;42.50;99288.47;4344760;33;34819;-84
2023/08/24 09:42:24;;;;;;;8.63;4.90;;;;;;;31.05;41.47;99283.63;4373619;32;33369;-90
2023/08/24 09:45:04;;;;;;;7.72;5.22;;;;;;;30.99;40.07;99281.41;4376244;32;33642;-92
2023/08/24 09:47:32;;;;;;;10.63;5.03;;;;;;;31.19;39.88;99285.37;4374987;32;33961;-94
2023/08/24 09:50:00;;;;;;;7.85;5.20;;;;;;;31.20;39.31;99273.69;4376720;32;34794;-94
2023/08/24 09:52:31;;;;;;;7.78;4.85;;;;;;;31.15;39.88;99287.41;4367479;32;34261;-88
2023/08/24 09:55:09;;;;;;;8.48;4.93;;;;;;;31.15;40.86;99284.72;4352489;32;33440;-84
2023/08/24 09:57:38;;;;;;;7.03;5.00;;;;;;;31.01;39.17;99277.63;4345758;33;34827;-85
2023/08/24 10:00:10;;;;;;;7.72;5.00;;;;;;;31.21;40.41;99286.94;4345643;33;34997;-95
2023/08/24 10:02:51;;;;;;;8.68;4.70;;;;;;;31.05;39.22;99282.78;4348414;33;34348;-85
2023/08/24 10:05:21;;;;;;;7.97;4.62;;;;;;;31.54;40.40;99290.06;4348003;33;32861;-85
2023/08/24 10:07:55;;;;;;;10.75;4.62;;;;;;;31.71;37.11;99287.03;4344529;33;33807;-84
2023/08/24 10:10:28;;;;;;;8.88;5.05;;;;;;;31.53;37.57;99275.81;4358000;32;35214;-94
2023/08/24 10:13:08;;;;;;;6.78;4.50;;;;;;;31.83;36.41;99279.91;4356470;32;34996;-84
2023/08/24 10:15:37;;;;;;;8.23;4.87;;;;;;;31.69;36.47;99278.22;4345052;33;34460;-85
2023/08/24 10:18:05;;;;;;;7.80;4.05;;;;;;;31.55;36.16;99275.69;4346315;33;33707;-89
2023/08/24 10:20:33;;;;;;;11.25;4.65;;;;;;;31.74;37.06;99281.41;4334256;33;33794;-96
2023/08/24 10:23:01;;;;;;;7.12;4.40;;;;;;;31.68;36.75;99277.37;4332336;33;34206;-84
2023/08/24 10:25:32;;;;;;;10.63;5.03;;;;;;;31.62;38.16;99280.50;4344833;32;34479;-90
2023/08/24 10:28:00;;;;;;;6.78;4.28;;;;;;;31.77;35.08;99272.31;4360936;32;33097;-86
2023/08/24 10:30:30;;;;;;;8.57;4.43;;;;;;;31.78;34.52;99265.97;4361281;32;34193;-85
2023/08/24 10:32:58;;;;;;;7.45;4.25;;;;;;;31.55;35.88;99268.50;4359781;32;34327;-96
2023/08/24 10:35:26;;;;;;;9.90;5.62;;;;;;;31.42;35.35;99267.69;4361446;32;34519;-95
2023/08/24 10:37:58;;;;;;;10.48;4.47;;;;;;;31.85;36.30;99262.75;4351808;32;33418;-84
2023/08/24 10:40:36;;;;;;;10.13;4.28;;;;;;;31.72;36.73;99252.06;4346851;32;35451;-90
2023/08/24 10:43:05;;;;;;;7.90;4.37;;;;;;;31.74;35.21;99250.09;4344072;32;35475;-83
2023/08/24 10:45:59;;;;;;;6.85;4.60;;;;;;;31.90;35.20;99249.03;4361977;32;33743;-92
2023/08/24 10:48:41;;;;;;;6.37;4.47;;;;;;;31.91;36.56;99256.97;4351900;32;33850;-86
2023/08/24 10:51:21;;;;;;;10.25;4.68;;;;;;;31.54;36.30;99248.03;4359647;32;34183;-86
2023/08/24 10:53:59;;;;;;;7.57;4.68;;;;;;;31.93;34.58;99246.09;4358359;32;34940;-88
2023/08/24 10:56:38;;;;;;;6.70;4.53;;;;;;;31.93;33.99;99246.09;4359464;32;33175;-84
2023/08/24 10:59:11;;;;;;;9.57;4.87;;;;;;;31.68;35.14;99245.22;4364189;32;34616;-96
2023/08/24 11:01:40;;;;;;;7.50;5.10;;;;;;;32.09;36.45;99245.84;4354328;32;33553;-85
2023/08/24 11:04:08;;;;;;;8.18;5.07;;;;;;;32.30;35.21;99244.22;4350606;32;34172;-86
2023/08/24 11:07:01;;;;;;;8.98;4.82;;;;;;;31.82;35.71;99246.00;4345572;33;33647;-88
2023/08/24 11:09:46;;;;;;;11.75;5.15;;;;;;;31.96;34.68;99249.41;4348124;32;34046;-88
2023/08/24 11:12:14;;;;;;;8.88;5.15;;;;;;;32.15;34.47;99237.31;4343244;32;33521;-86
2023/08/24 11:14:54;;;;;;;10.82;5.22;;;;;;;32.16;36.10;99244.38;4361148;32;34924;-85
2023/08/24 11:17:22;;;;;;;8.85;5.20;;;;;;;32.16;35.28;99241.69;4367945;32;33613;-86
2023/08/24 11:19:52;;;;;;;6.37;4.62;;;;;;;32.18;34.96;99245.13;4363009;32;33943;-85
2023/08/24 11:22:21;;;;;;;8.90;4.87;;;;;;;32.09;35.31;99244.00;4366273;32;34078;-83
2023/08/24 11:24:48;;;;;;;7.97;4.80;;;;;;;32.13;34.58;99250.00;4362162;32;34155;-84
2023/08/24 11:27:16;;;;;;;11.32;5.40;;;;;;;32.14;33.38;99240.97;4350673;32;35033;-93
2023/08/24 11:29:43;;;;;;;8.05;4.62;;;;;;;32.22;35.26;99239.41;4361572;32;34418;-96
2023/08/24 11:32:11;;;;;;;9.07;4.32;;;;;;;32.32;35.54;99239.59;4365479;32;34212;-84
2023/08/24 11:34:39;;;;;;;7.87;5.07;;;;;;;32.38;35.92;99233.75;4362104;32;34331;-84
2023/08/24 11:37:18;;;;;;;7.72;4.95;;;;;;;32.45;33.97;99224.28;4362103;32;33173;-83